Time,TemperatureF,DewpointF,PressureIn,WindDirection,WindDirectionDegrees,WindSpeedMPH,WindSpeedGustMPH,Humidity,HourlyPrecipIn,Conditions,Clouds,dailyrainin,SoftwareType,DateUTC
2013-03-09 00:00:00,45.5,42.5,30.09,WSW,254,0.0,0.0,89,0.00,,---,0.00,VWS V14.01,2013-03-09 05:00:00,
2013-03-09 00:01:00,45.5,42.5,30.09,WSW,254,0.0,0.0,89,0.00,,---,0.00,VWS V14.01,2013-03-09 05:01:00,
2013-03-09 00:06:00,45.2,42.2,30.09,WSW,254,0.0,0.0,89,0.00,,---,0.00,VWS V14.01,2013-03-09 05:06:00,
2013-03-09 00:11:00,45.2,42.2,30.09,WSW,254,0.0,0.0,89,0.00,,---,0.00,VWS V14.01,2013-03-09 05:11:00,
2013-03-09 00:16:00,45.2,42.2,30.09,WSW,254,0.0,0.0,89,0.00,,---,0.00,VWS V14.01,2013-03-09 05:16:00,
2013-03-09 00:21:00,45.2,42.2,30.09,WSW,254,0.0,0.0,89,0.00,,---,0.00,VWS V14.01,2013-03-09 05:21:00,
2013-03-09 00:26:00,45.2,42.5,30.09,WSW,254,0.0,0.0,90,0.00,,---,0.00,VWS V14.01,2013-03-09 05:26:00,
2013-03-09 00:30:00,45.4,42.9,30.07,WSW,254,0.0,0.0,91,0.00,,---,0.00,VWS V14.01,2013-03-09 05:30:00,
2013-03-09 00:31:00,45.2,42.5,30.09,WSW,254,0.0,0.0,90,0.00,,---,0.00,VWS V14.01,2013-03-09 05:31:00,
2013-03-09 00:36:00,45.2,42.5,30.10,WSW,254,0.0,0.0,90,0.00,,---,0.00,VWS V14.01,2013-03-09 05:36:00,
2013-03-09 00:41:00,45.2,42.5,30.10,WSW,254,0.0,0.0,90,0.00,,---,0.00,VWS V14.01,2013-03-09 05:41:00,
2013-03-09 00:46:00,45.1,42.3,30.10,WSW,254,0.0,0.0,90,0.00,,---,0.00,VWS V14.01,2013-03-09 05:46:00,
2013-03-09 00:51:00,45.1,42.3,30.10,WSW,254,0.0,0.0,90,0.00,,---,0.00,VWS V14.01,2013-03-09 05:51:00,
2013-03-09 00:57:00,45.2,42.5,30.10,WSW,254,0.0,0.0,90,0.00,,---,0.00,VWS V14.01,2013-03-09 05:57:00,
2013-03-09 01:00:00,44.3,41.8,30.07,WSW,254,0.0,0.0,91,0.00,,---,0.00,VWS V14.01,2013-03-09 06:00:00,
2013-03-09 01:01:00,45.2,42.5,30.10,WSW,254,0.0,0.0,90,0.00,,---,0.00,VWS V14.01,2013-03-09 06:01:00,
2013-03-09 01:07:00,45.2,42.5,30.09,WSW,254,0.0,0.0,90,0.00,,---,0.00,VWS V14.01,2013-03-09 06:07:00,
2013-03-09 01:12:00,45.5,42.7,30.09,WSW,254,0.0,0.0,90,0.00,,---,0.00,VWS V14.01,2013-03-09 06:12:00,
2013-03-09 01:17:00,45.5,42.7,30.09,WSW,254,0.0,0.0,90,0.00,,---,0.00,VWS V14.01,2013-03-09 06:17:00,
2013-03-09 01:22:00,45.5,42.7,30.08,WSW,254,0.0,0.0,90,0.00,,---,0.00,VWS V14.01,2013-03-09 06:22:00,
2013-03-09 01:27:00,45.5,43.0,30.08,WSW,254,0.0,0.0,91,0.00,,---,0.00,VWS V14.01,2013-03-09 06:27:00,
2013-03-09 01:30:00,43.5,41.0,30.08,WSW,254,0.0,0.0,91,0.00,,---,0.00,VWS V14.01,2013-03-09 06:30:00,
2013-03-09 01:32:00,45.4,42.9,30.08,WSW,254,0.0,0.0,91,0.00,,---,0.00,VWS V14.01,2013-03-09 06:32:00,
2013-03-09 01:37:00,45.4,42.9,30.07,WSW,254,0.0,0.0,91,0.00,,---,0.00,VWS V14.01,2013-03-09 06:37:00,
2013-03-09 01:42:00,45.1,42.6,30.07,WSW,254,0.0,0.0,91,0.00,,---,0.00,VWS V14.01,2013-03-09 06:42:00,
2013-03-09 01:47:00,44.9,42.4,30.07,WSW,254,0.0,0.0,91,0.00,,---,0.00,VWS V14.01,2013-03-09 06:47:00,
2013-03-09 01:52:00,44.8,42.3,30.07,WSW,254,0.0,0.0,91,0.00,,---,0.00,VWS V14.01,2013-03-09 06:52:00,
2013-03-09 01:57:00,44.6,42.1,30.07,WSW,254,0.0,0.0,91,0.00,,---,0.00,VWS V14.01,2013-03-09 06:57:00,
2013-03-09 02:00:00,43.3,41.1,30.05,WSW,254,0.0,0.0,92,0.00,,---,0.00,VWS V14.01,2013-03-09 07:00:00,
2013-03-09 02:02:00,44.3,41.8,30.07,WSW,254,0.0,0.0,91,0.00,,---,0.00,VWS V14.01,2013-03-09 07:02:00,
2013-03-09 02:07:00,44.2,41.7,30.07,WSW,254,0.0,0.0,91,0.00,,---,0.00,VWS V14.01,2013-03-09 07:07:00,
2013-03-09 02:12:00,44.1,41.7,30.07,WSW,254,0.0,0.0,91,0.00,,---,0.00,VWS V14.01,2013-03-09 07:12:00,
2013-03-09 02:18:00,43.9,41.5,30.07,WSW,254,0.0,0.0,91,0.00,,---,0.00,VWS V14.01,2013-03-09 07:18:00,
2013-03-09 02:23:00,43.9,41.5,30.08,WSW,254,0.0,0.0,91,0.00,,---,0.00,VWS V14.01,2013-03-09 07:23:00,
2013-03-09 02:28:00,43.8,41.3,30.08,WSW,254,0.0,0.0,91,0.00,,---,0.00,VWS V14.01,2013-03-09 07:28:00,
2013-03-09 02:30:00,42.9,40.7,30.04,WSW,254,0.0,0.0,92,0.00,,---,0.00,VWS V14.01,2013-03-09 07:30:00,
2013-03-09 02:33:00,43.6,41.2,30.08,WSW,254,0.0,0.0,91,0.00,,---,0.00,VWS V14.01,2013-03-09 07:33:00,
2013-03-09 02:38:00,43.5,41.0,30.08,WSW,254,0.0,0.0,91,0.00,,---,0.00,VWS V14.01,2013-03-09 07:38:00,
2013-03-09 02:43:00,43.3,41.1,30.08,WSW,254,0.0,0.0,92,0.00,,---,0.00,VWS V14.01,2013-03-09 07:43:00,
2013-03-09 02:48:00,43.3,41.1,30.06,WSW,254,0.0,0.0,92,0.00,,---,0.00,VWS V14.01,2013-03-09 07:48:00,
2013-03-09 02:53:00,43.3,41.1,30.06,WSW,254,0.0,0.0,92,0.00,,---,0.00,VWS V14.01,2013-03-09 07:53:00,
2013-03-09 02:58:00,43.3,41.1,30.06,WSW,254,0.0,0.0,92,0.00,,---,0.00,VWS V14.01,2013-03-09 07:58:00,
2013-03-09 03:00:00,41.9,39.8,30.05,WSW,254,0.0,0.0,92,0.00,,---,0.00,VWS V14.01,2013-03-09 08:00:00,
2013-03-09 03:03:00,43.3,41.1,30.05,WSW,254,0.0,0.0,92,0.00,,---,0.00,VWS V14.01,2013-03-09 08:03:00,
2013-03-09 03:08:00,42.9,40.7,30.05,WSW,254,0.0,0.0,92,0.00,,---,0.00,VWS V14.01,2013-03-09 08:08:00,
2013-03-09 03:13:00,42.9,40.7,30.05,WSW,254,0.0,0.0,92,0.00,,---,0.00,VWS V14.01,2013-03-09 08:13:00,
2013-03-09 03:18:00,42.9,40.7,30.04,WSW,254,0.0,0.0,92,0.00,,---,0.00,VWS V14.01,2013-03-09 08:18:00,
2013-03-09 03:23:00,42.9,40.7,30.04,WSW,254,0.0,0.0,92,0.00,,---,0.00,VWS V14.01,2013-03-09 08:23:00,
2013-03-09 03:28:00,42.9,40.7,30.04,WSW,254,0.0,0.0,92,0.00,,---,0.00,VWS V14.01,2013-03-09 08:28:00,
2013-03-09 03:30:00,41.9,39.8,30.06,WSW,254,0.0,0.0,92,0.00,,---,0.00,VWS V14.01,2013-03-09 08:30:00,
2013-03-09 03:33:00,42.9,40.7,30.04,WSW,254,0.0,0.0,92,0.00,,---,0.00,VWS V14.01,2013-03-09 08:33:00,
2013-03-09 03:39:00,42.3,40.2,30.04,WSW,254,0.0,0.0,92,0.00,,---,0.00,VWS V14.01,2013-03-09 08:39:00,
2013-03-09 03:44:00,42.3,40.2,30.04,WSW,254,0.0,0.0,92,0.00,,---,0.00,VWS V14.01,2013-03-09 08:44:00,
2013-03-09 03:49:00,42.2,40.0,30.05,WSW,254,0.0,0.0,92,0.00,,---,0.00,VWS V14.01,2013-03-09 08:49:00,
2013-03-09 03:54:00,42.2,40.0,30.05,WSW,254,0.0,0.0,92,0.00,,---,0.00,VWS V14.01,2013-03-09 08:54:00,
2013-03-09 03:59:00,42.2,40.0,30.05,WSW,254,0.0,0.0,92,0.00,,---,0.00,VWS V14.01,2013-03-09 08:59:00,
2013-03-09 04:00:00,40.8,38.7,30.06,WSW,254,0.0,0.0,92,0.00,,---,0.00,VWS V14.01,2013-03-09 09:00:00,
2013-03-09 04:04:00,41.9,39.8,30.05,WSW,254,0.0,0.0,92,0.00,,---,0.00,VWS V14.01,2013-03-09 09:04:00,
2013-03-09 04:09:00,41.9,39.8,30.05,WSW,254,0.0,0.0,92,0.00,,---,0.00,VWS V14.01,2013-03-09 09:09:00,
2013-03-09 04:14:00,41.9,39.8,30.05,WSW,254,0.0,0.0,92,0.00,,---,0.00,VWS V14.01,2013-03-09 09:14:00,
2013-03-09 04:19:00,41.9,39.8,30.06,WSW,254,0.0,0.0,92,0.00,,---,0.00,VWS V14.01,2013-03-09 09:19:00,
2013-03-09 04:24:00,41.9,39.8,30.06,WSW,254,0.0,0.0,92,0.00,,---,0.00,VWS V14.01,2013-03-09 09:24:00,
2013-03-09 04:29:00,41.9,39.8,30.06,WSW,254,0.0,0.0,92,0.00,,---,0.00,VWS V14.01,2013-03-09 09:29:00,
2013-03-09 04:30:00,40.8,38.7,30.06,WSW,254,0.0,0.0,92,0.00,,---,0.00,VWS V14.01,2013-03-09 09:30:00,
2013-03-09 04:34:00,41.9,39.8,30.06,WSW,254,0.0,0.0,92,0.00,,---,0.00,VWS V14.01,2013-03-09 09:34:00,
2013-03-09 04:39:00,41.9,39.8,30.06,WSW,254,0.0,0.0,92,0.00,,---,0.00,VWS V14.01,2013-03-09 09:39:00,
2013-03-09 04:44:00,41.9,39.8,30.06,WSW,254,0.0,0.0,92,0.00,,---,0.00,VWS V14.01,2013-03-09 09:44:00,
2013-03-09 04:49:00,41.9,39.8,30.06,WSW,254,0.0,0.0,92,0.00,,---,0.00,VWS V14.01,2013-03-09 09:49:00,
2013-03-09 04:55:00,41.9,39.8,30.06,WSW,254,0.0,0.0,92,0.00,,---,0.00,VWS V14.01,2013-03-09 09:55:00,
2013-03-09 05:00:00,40.8,38.7,30.06,WSW,254,0.0,0.0,92,0.00,,---,0.00,VWS V14.01,2013-03-09 10:00:00,
2013-03-09 05:05:00,40.8,38.7,30.06,WSW,254,0.0,0.0,92,0.00,,---,0.00,VWS V14.01,2013-03-09 10:05:00,
2013-03-09 05:10:00,40.8,38.7,30.06,WSW,254,0.0,0.0,92,0.00,,---,0.00,VWS V14.01,2013-03-09 10:10:00,
2013-03-09 05:15:00,40.8,38.7,30.06,WSW,254,0.0,0.0,92,0.00,,---,0.00,VWS V14.01,2013-03-09 10:15:00,
2013-03-09 05:20:00,40.8,38.7,30.06,WSW,254,0.0,0.0,92,0.00,,---,0.00,VWS V14.01,2013-03-09 10:20:00,
2013-03-09 05:25:00,40.8,38.7,30.06,WSW,254,0.0,0.0,92,0.00,,---,0.00,VWS V14.01,2013-03-09 10:25:00,
2013-03-09 05:30:00,40.8,38.7,30.06,WSW,254,0.0,0.0,92,0.00,,---,0.00,VWS V14.01,2013-03-09 10:30:00,
2013-03-09 05:35:00,40.8,38.7,30.06,WSW,254,0.0,0.0,92,0.00,,---,0.00,VWS V14.01,2013-03-09 10:35:00,
2013-03-09 05:40:00,40.8,38.7,30.06,WSW,254,0.0,0.0,92,0.00,,---,0.00,VWS V14.01,2013-03-09 10:40:00,
2013-03-09 05:45:00,40.8,38.7,30.06,WSW,254,0.0,0.0,92,0.00,,---,0.00,VWS V14.01,2013-03-09 10:45:00,
2013-03-09 05:50:00,40.8,38.7,30.06,WSW,254,0.0,0.0,92,0.00,,---,0.00,VWS V14.01,2013-03-09 10:50:00,
2013-03-09 05:55:00,40.8,38.7,30.06,WSW,254,0.0,0.0,92,0.00,,---,0.00,VWS V14.01,2013-03-09 10:55:00,
2013-03-09 06:00:00,40.8,38.7,30.06,WSW,254,0.0,0.0,92,0.00,,---,0.00,VWS V14.01,2013-03-09 11:00:00,
2013-03-09 06:05:00,40.8,38.7,30.07,WSW,254,0.0,0.0,92,0.00,,---,0.00,VWS V14.01,2013-03-09 11:05:00,
2013-03-09 06:10:00,40.8,38.7,30.07,WSW,254,0.0,0.0,92,0.00,,---,0.00,VWS V14.01,2013-03-09 11:10:00,
2013-03-09 06:15:00,40.8,38.7,30.07,WSW,254,0.0,0.0,92,0.00,,---,0.00,VWS V14.01,2013-03-09 11:15:00,
2013-03-09 06:20:00,40.8,38.7,30.07,WSW,254,0.0,0.0,92,0.00,,---,0.00,VWS V14.01,2013-03-09 11:20:00,
2013-03-09 06:26:00,40.8,38.7,30.07,WSW,254,0.0,0.0,92,0.00,,---,0.00,VWS V14.01,2013-03-09 11:26:00,
2013-03-09 06:30:00,39.5,38.5,30.09,WSW,254,0.0,0.0,96,0.00,,---,0.00,VWS V14.01,2013-03-09 11:30:00,
2013-03-09 06:31:00,39.5,37.4,30.07,WSW,254,0.0,0.0,92,0.00,,---,0.00,VWS V14.01,2013-03-09 11:31:00,
2013-03-09 06:36:00,39.5,37.4,30.08,WSW,254,0.0,0.0,92,0.00,,---,0.00,VWS V14.01,2013-03-09 11:36:00,
2013-03-09 06:41:00,39.5,37.4,30.08,WSW,254,0.0,0.0,92,0.00,,---,0.00,VWS V14.01,2013-03-09 11:41:00,
2013-03-09 06:46:00,39.5,37.4,30.08,WSW,254,0.0,0.0,92,0.00,,---,0.00,VWS V14.01,2013-03-09 11:46:00,
2013-03-09 06:51:00,39.5,37.4,30.08,WSW,254,0.0,0.0,92,0.00,,---,0.00,VWS V14.01,2013-03-09 11:51:00,
2013-03-09 06:56:00,39.5,38.2,30.08,WSW,254,0.0,0.0,95,0.00,,---,0.00,VWS V14.01,2013-03-09 11:56:00,
2013-03-09 07:00:00,40.2,39.2,30.10,WSW,254,0.0,0.0,96,0.00,,---,0.00,VWS V14.01,2013-03-09 12:00:00,
2013-03-09 07:01:00,39.5,38.2,30.08,WSW,254,0.0,0.0,95,0.00,,---,0.00,VWS V14.01,2013-03-09 12:01:00,
2013-03-09 07:06:00,39.5,38.2,30.09,WSW,254,0.0,0.0,95,0.00,,---,0.00,VWS V14.01,2013-03-09 12:06:00,
2013-03-09 07:11:00,39.5,38.2,30.09,WSW,254,0.0,0.0,95,0.00,,---,0.00,VWS V14.01,2013-03-09 12:11:00,
2013-03-09 07:16:00,39.5,38.5,30.09,WSW,254,0.0,0.0,96,0.00,,---,0.00,VWS V14.01,2013-03-09 12:16:00,
2013-03-09 07:21:00,39.5,38.5,30.09,WSW,254,0.0,0.0,96,0.00,,---,0.00,VWS V14.01,2013-03-09 12:21:00,
2013-03-09 07:27:00,39.5,38.5,30.09,WSW,254,0.0,0.0,96,0.00,,---,0.00,VWS V14.01,2013-03-09 12:27:00,
2013-03-09 07:30:00,46.5,46.2,30.11,WSW,254,0.0,0.0,99,0.00,,---,0.00,VWS V14.01,2013-03-09 12:30:00,
2013-03-09 07:32:00,39.5,38.5,30.09,WSW,254,0.0,0.0,96,0.00,,---,0.00,VWS V14.01,2013-03-09 12:32:00,
2013-03-09 07:37:00,39.5,38.5,30.09,WSW,254,0.0,0.0,96,0.00,,---,0.00,VWS V14.01,2013-03-09 12:37:00,
2013-03-09 07:42:00,40.2,39.2,30.09,WSW,254,0.0,0.0,96,0.00,,---,0.00,VWS V14.01,2013-03-09 12:42:00,
2013-03-09 07:47:00,40.2,39.2,30.09,WSW,254,0.0,0.0,96,0.00,,---,0.00,VWS V14.01,2013-03-09 12:47:00,
2013-03-09 07:52:00,40.2,39.2,30.10,WSW,254,0.0,0.0,96,0.00,,---,0.00,VWS V14.01,2013-03-09 12:52:00,
2013-03-09 07:57:00,40.2,39.2,30.10,WSW,254,0.0,0.0,96,0.00,,---,0.00,VWS V14.01,2013-03-09 12:57:00,
2013-03-09 08:00:00,53.2,52.9,30.12,WSW,254,0.0,0.0,99,0.00,,---,0.00,VWS V14.01,2013-03-09 13:00:00,
2013-03-09 08:02:00,40.2,39.2,30.10,WSW,254,0.0,0.0,96,0.00,,---,0.00,VWS V14.01,2013-03-09 13:02:00,
2013-03-09 08:07:00,40.2,39.2,30.10,WSW,254,0.0,0.0,96,0.00,,---,0.00,VWS V14.01,2013-03-09 13:07:00,
2013-03-09 08:12:00,40.2,39.2,30.10,WSW,254,0.0,0.0,96,0.00,,---,0.00,VWS V14.01,2013-03-09 13:12:00,
2013-03-09 08:17:00,40.2,39.2,30.10,WSW,254,0.0,0.0,96,0.00,,---,0.00,VWS V14.01,2013-03-09 13:17:00,
2013-03-09 08:23:00,40.2,39.2,30.11,WSW,254,0.0,0.0,96,0.00,,---,0.00,VWS V14.01,2013-03-09 13:23:00,
2013-03-09 08:28:00,45.7,44.6,30.11,WSW,254,0.0,0.0,96,0.00,,---,0.00,VWS V14.01,2013-03-09 13:28:00,
2013-03-09 08:30:00,60.5,46.6,30.11,ESE,114,0.0,4.0,60,0.00,,---,0.00,VWS V14.01,2013-03-09 13:30:00,
2013-03-09 08:33:00,46.5,46.2,30.11,WSW,254,0.0,0.0,99,0.00,,---,0.00,VWS V14.01,2013-03-09 13:33:00,
2013-03-09 08:38:00,46.5,46.2,30.11,WSW,254,0.0,0.0,99,0.00,,---,0.00,VWS V14.01,2013-03-09 13:38:00,
2013-03-09 08:43:00,46.5,46.2,30.11,WSW,254,0.0,0.0,99,0.00,,---,0.00,VWS V14.01,2013-03-09 13:43:00,
2013-03-09 08:48:00,46.5,46.2,30.12,WSW,254,0.0,0.0,99,0.00,,---,0.00,VWS V14.01,2013-03-09 13:48:00,
2013-03-09 08:53:00,51.6,51.3,30.12,WSW,254,0.0,0.0,99,0.00,,---,0.00,VWS V14.01,2013-03-09 13:53:00,
2013-03-09 08:58:00,52.3,52.0,30.12,WSW,254,0.0,0.0,99,0.00,,---,0.00,VWS V14.01,2013-03-09 13:58:00,
2013-03-09 09:00:00,64.2,46.2,30.12,North,349,0.0,4.0,52,0.00,,---,0.00,VWS V14.01,2013-03-09 14:00:00,
2013-03-09 09:03:00,52.6,52.3,30.12,WSW,254,0.0,0.0,99,0.00,,---,0.00,VWS V14.01,2013-03-09 14:03:00,
2013-03-09 09:08:00,53.8,53.5,30.12,WSW,254,0.0,0.0,99,0.00,,---,0.00,VWS V14.01,2013-03-09 14:08:00,
2013-03-09 09:13:00,55.3,52.7,30.12,WSW,254,0.0,0.0,91,0.00,,---,0.00,VWS V14.01,2013-03-09 14:13:00,
2013-03-09 09:18:00,56.2,52.7,30.12,WSW,254,0.0,0.0,88,0.00,,---,0.00,VWS V14.01,2013-03-09 14:18:00,
2013-03-09 09:23:00,56.6,53.1,30.12,WSW,254,0.0,0.0,88,0.00,,---,0.00,VWS V14.01,2013-03-09 14:23:00,
2013-03-09 09:29:00,59.0,46.4,30.12,NNW,342,0.0,4.0,63,0.00,,---,0.00,VWS V14.01,2013-03-09 14:29:00,
2013-03-09 09:30:00,66.6,47.4,30.12,NW,315,0.0,3.0,50,0.00,,---,0.00,VWS V14.01,2013-03-09 14:30:00,
2013-03-09 09:34:00,60.5,46.6,30.11,ESE,114,0.0,4.0,60,0.00,,---,0.00,VWS V14.01,2013-03-09 14:34:00,
2013-03-09 09:39:00,61.2,47.2,30.11,ESE,114,0.0,0.0,60,0.00,,---,0.00,VWS V14.01,2013-03-09 14:39:00,
2013-03-09 09:44:00,62.1,46.2,30.11,East,93,0.0,3.0,56,0.00,,---,0.00,VWS V14.01,2013-03-09 14:44:00,
2013-03-09 09:49:00,62.4,47.9,30.12,East,96,0.0,3.0,59,0.00,,---,0.00,VWS V14.01,2013-03-09 14:49:00,
2013-03-09 09:54:00,62.9,48.4,30.12,West,277,0.0,3.0,59,0.00,,---,0.00,VWS V14.01,2013-03-09 14:54:00,
2013-03-09 09:59:00,63.4,47.5,30.12,West,275,0.0,3.0,56,0.00,,---,0.00,VWS V14.01,2013-03-09 14:59:00,
2013-03-09 10:00:00,68.1,48.8,30.12,NW,323,2.0,3.0,50,0.00,,---,0.00,VWS V14.01,2013-03-09 15:00:00,
2013-03-09 10:04:00,64.2,46.2,30.12,NNE,17,2.0,3.0,52,0.00,,---,0.00,VWS V14.01,2013-03-09 15:04:00,
2013-03-09 10:09:00,64.8,47.3,30.12,NNE,31,0.0,3.0,53,0.00,,---,0.00,VWS V14.01,2013-03-09 15:09:00,
2013-03-09 10:14:00,64.8,46.3,30.12,North,0,0.0,3.0,51,0.00,,---,0.00,VWS V14.01,2013-03-09 15:14:00,
2013-03-09 10:19:00,65.2,46.6,30.13,South,178,0.0,3.0,51,0.00,,---,0.00,VWS V14.01,2013-03-09 15:19:00,
2013-03-09 10:24:00,65.8,48.2,30.13,South,175,0.0,3.0,53,0.00,,---,0.00,VWS V14.01,2013-03-09 15:24:00,
2013-03-09 10:29:00,66.3,48.7,30.13,South,175,0.0,3.0,53,0.00,,---,0.00,VWS V14.01,2013-03-09 15:29:00,
2013-03-09 10:30:00,67.8,48.5,30.12,SE,128,0.0,6.0,50,0.00,,---,0.00,VWS V14.01,2013-03-09 15:30:00,
2013-03-09 10:35:00,66.6,47.4,30.12,NW,315,0.0,0.0,50,0.00,,---,0.00,VWS V14.01,2013-03-09 15:35:00,
2013-03-09 10:40:00,66.8,47.6,30.12,North,0,0.0,2.0,50,0.00,,---,0.00,VWS V14.01,2013-03-09 15:40:00,
2013-03-09 10:45:00,66.9,48.2,30.12,North,8,0.0,2.0,51,0.00,,---,0.00,VWS V14.01,2013-03-09 15:45:00,
2013-03-09 10:50:00,67.3,48.6,30.12,NE,55,0.0,2.0,51,0.00,,---,0.00,VWS V14.01,2013-03-09 15:50:00,
2013-03-09 10:55:00,67.4,49.7,30.12,NNW,337,0.0,3.0,53,0.00,,---,0.00,VWS V14.01,2013-03-09 15:55:00,
2013-03-09 11:00:00,67.6,48.3,30.12,SSW,209,0.0,3.0,50,0.00,,---,0.00,VWS V14.01,2013-03-09 16:00:00,
2013-03-09 11:05:00,68.1,49.3,30.12,SSE,147,0.0,2.0,51,0.00,,---,0.00,VWS V14.01,2013-03-09 16:05:00,
2013-03-09 11:10:00,68.6,49.2,30.12,SSE,150,0.0,2.0,50,0.00,,---,0.00,VWS V14.01,2013-03-09 16:10:00,
2013-03-09 11:15:00,68.3,48.4,30.12,NNW,330,0.0,6.0,49,0.00,,---,0.00,VWS V14.01,2013-03-09 16:15:00,
2013-03-09 11:20:00,67.8,48.0,30.13,NW,309,0.0,6.0,49,0.00,,---,0.00,VWS V14.01,2013-03-09 16:20:00,
2013-03-09 11:25:00,67.8,48.5,30.13,NNW,328,0.0,6.0,50,0.00,,---,0.00,VWS V14.01,2013-03-09 16:25:00,
2013-03-09 11:30:00,67.8,49.5,30.13,SE,127,0.0,6.0,52,0.00,,---,0.00,VWS V14.01,2013-03-09 16:30:00,
2013-03-09 11:35:00,67.8,49.0,30.12,West,260,0.0,1.0,51,0.00,,---,0.00,VWS V14.01,2013-03-09 16:35:00,
2013-03-09 11:40:00,67.8,49.0,30.12,SSE,162,0.0,1.0,51,0.00,,---,0.00,VWS V14.01,2013-03-09 16:40:00,
2013-03-09 11:45:00,68.1,48.2,30.12,North,0,0.0,5.0,49,0.00,,---,0.00,VWS V14.01,2013-03-09 16:45:00,
2013-03-09 11:50:00,68.6,48.7,30.12,North,0,0.0,5.0,49,0.00,,---,0.00,VWS V14.01,2013-03-09 16:50:00,
2013-03-09 11:55:00,69.4,48.9,30.12,North,8,1.0,5.0,48,0.00,,---,0.00,VWS V14.01,2013-03-09 16:55:00,
2013-03-09 12:00:00,69.9,48.2,30.12,North,354,0.0,5.0,46,0.00,,---,0.00,VWS V14.01,2013-03-09 17:00:00,
2013-03-09 12:05:00,69.6,49.1,30.10,SW,229,2.0,2.0,48,0.00,,---,0.00,VWS V14.01,2013-03-09 17:05:00,
2013-03-09 12:11:00,69.6,49.1,30.10,SSE,158,0.0,2.0,48,0.00,,---,0.00,VWS V14.01,2013-03-09 17:11:00,
2013-03-09 12:16:00,70.3,48.0,30.10,SE,143,0.0,3.0,45,0.00,,---,0.00,VWS V14.01,2013-03-09 17:16:00,
2013-03-09 12:21:00,70.4,47.5,30.10,NNW,343,0.0,3.0,44,0.00,,---,0.00,VWS V14.01,2013-03-09 17:21:00,
2013-03-09 12:26:00,71.1,47.5,30.10,SE,140,0.0,3.0,43,0.00,,---,0.00,VWS V14.01,2013-03-09 17:26:00,
2013-03-09 12:30:00,73.2,48.1,30.07,SE,126,0.0,5.0,41,0.00,,---,0.00,VWS V14.01,2013-03-09 17:30:00,
2013-03-09 12:31:00,71.6,47.3,30.10,SE,141,0.0,3.0,42,0.00,,---,0.00,VWS V14.01,2013-03-09 17:31:00,
2013-03-09 12:36:00,72.0,47.7,30.09,SE,133,0.0,3.0,42,0.00,,---,0.00,VWS V14.01,2013-03-09 17:36:00,
2013-03-09 12:41:00,72.5,46.8,30.09,SSE,161,0.0,3.0,40,0.00,,---,0.00,VWS V14.01,2013-03-09 17:41:00,
2013-03-09 12:46:00,72.8,47.1,30.09,SSE,158,0.0,3.0,40,0.00,,---,0.00,VWS V14.01,2013-03-09 17:46:00,
2013-03-09 12:51:00,73.3,47.5,30.09,SE,131,0.0,3.0,40,0.00,,---,0.00,VWS V14.01,2013-03-09 17:51:00,
2013-03-09 12:56:00,73.0,47.3,30.09,SE,137,0.0,3.0,40,0.00,,---,0.00,VWS V14.01,2013-03-09 17:56:00,
2013-03-09 13:00:00,74.0,47.5,30.05,NNE,28,0.0,5.0,39,0.00,,---,0.00,VWS V14.01,2013-03-09 18:00:00,
2013-03-09 13:01:00,73.0,46.6,30.09,SE,136,0.0,3.0,39,0.00,,---,0.00,VWS V14.01,2013-03-09 18:01:00,
2013-03-09 13:06:00,72.8,47.1,30.09,SE,136,0.0,0.0,40,0.00,,---,0.00,VWS V14.01,2013-03-09 18:06:00,
2013-03-09 13:11:00,72.5,45.5,30.09,SE,128,0.0,2.0,38,0.00,,---,0.00,VWS V14.01,2013-03-09 18:11:00,
2013-03-09 13:16:00,72.1,48.4,30.09,ESE,119,0.0,3.0,43,0.00,,---,0.00,VWS V14.01,2013-03-09 18:16:00,
2013-03-09 13:21:00,72.7,47.7,30.07,ESE,123,0.0,3.0,41,0.00,,---,0.00,VWS V14.01,2013-03-09 18:21:00,
2013-03-09 13:26:00,73.2,48.1,30.07,SE,126,0.0,5.0,41,0.00,,---,0.00,VWS V14.01,2013-03-09 18:26:00,
2013-03-09 13:30:00,73.9,46.7,30.04,SSE,160,0.0,3.0,38,0.00,,---,0.00,VWS V14.01,2013-03-09 18:30:00,
2013-03-09 13:31:00,73.0,48.6,30.07,SE,126,0.0,5.0,42,0.00,,---,0.00,VWS V14.01,2013-03-09 18:31:00,
2013-03-09 13:37:00,73.3,50.1,30.07,SE,126,0.0,0.0,44,0.00,,---,0.00,VWS V14.01,2013-03-09 18:37:00,
2013-03-09 13:42:00,73.3,48.2,30.07,SE,126,0.0,0.0,41,0.00,,---,0.00,VWS V14.01,2013-03-09 18:42:00,
2013-03-09 13:47:00,73.0,47.3,30.07,NW,322,0.0,5.0,40,0.00,,---,0.00,VWS V14.01,2013-03-09 18:47:00,
2013-03-09 13:52:00,73.3,47.5,30.06,NNE,28,0.0,5.0,40,0.00,,---,0.00,VWS V14.01,2013-03-09 18:52:00,
2013-03-09 13:57:00,73.7,47.2,30.06,NNE,30,0.0,5.0,39,0.00,,---,0.00,VWS V14.01,2013-03-09 18:57:00,
2013-03-09 14:00:00,73.9,45.3,30.03,SSE,165,0.0,2.0,36,0.00,,---,0.00,VWS V14.01,2013-03-09 19:00:00,
2013-03-09 14:02:00,74.0,47.5,30.06,NNE,28,0.0,5.0,39,0.00,,---,0.00,VWS V14.01,2013-03-09 19:02:00,
2013-03-09 14:07:00,74.0,47.5,30.05,SSE,158,0.0,2.0,39,0.00,,---,0.00,VWS V14.01,2013-03-09 19:07:00,
2013-03-09 14:12:00,73.7,47.2,30.05,WSW,251,0.0,2.0,39,0.00,,---,0.00,VWS V14.01,2013-03-09 19:12:00,
2013-03-09 14:17:00,73.7,46.5,30.05,SSE,158,0.0,3.0,38,0.00,,---,0.00,VWS V14.01,2013-03-09 19:17:00,
2013-03-09 14:22:00,74.0,46.1,30.05,SSE,160,0.0,3.0,37,0.00,,---,0.00,VWS V14.01,2013-03-09 19:22:00,
2013-03-09 14:27:00,74.2,46.3,30.05,SSE,165,1.0,3.0,37,0.00,,---,0.00,VWS V14.01,2013-03-09 19:27:00,
2013-03-09 14:30:00,74.2,46.3,30.04,SSE,165,0.0,1.0,37,0.00,,---,0.00,VWS V14.01,2013-03-09 19:30:00,
2013-03-09 14:33:00,73.9,46.0,30.05,SSE,160,0.0,3.0,37,0.00,,---,0.00,VWS V14.01,2013-03-09 19:33:00,
2013-03-09 14:38:00,73.9,44.5,30.04,West,274,0.0,2.0,35,0.00,,---,0.00,VWS V14.01,2013-03-09 19:38:00,
2013-03-09 14:43:00,73.3,46.9,30.04,SSE,167,0.0,2.0,39,0.00,,---,0.00,VWS V14.01,2013-03-09 19:43:00,
2013-03-09 14:48:00,73.5,45.7,30.04,SSE,167,0.0,2.0,37,0.00,,---,0.00,VWS V14.01,2013-03-09 19:48:00,
2013-03-09 14:53:00,73.3,44.0,30.04,SSE,165,0.0,2.0,35,0.00,,---,0.00,VWS V14.01,2013-03-09 19:53:00,
2013-03-09 14:58:00,73.5,44.9,30.04,SSE,165,0.0,2.0,36,0.00,,---,0.00,VWS V14.01,2013-03-09 19:58:00,
2013-03-09 15:00:00,74.7,46.7,30.03,NW,325,0.0,5.0,37,0.00,,---,0.00,VWS V14.01,2013-03-09 20:00:00,
2013-03-09 15:03:00,73.9,45.3,30.03,SSE,165,0.0,2.0,36,0.00,,---,0.00,VWS V14.01,2013-03-09 20:03:00,
2013-03-09 15:08:00,73.9,46.0,30.03,SSE,165,0.0,0.0,37,0.00,,---,0.00,VWS V14.01,2013-03-09 20:08:00,
2013-03-09 15:13:00,73.9,46.7,30.03,SSE,165,0.0,0.0,38,0.00,,---,0.00,VWS V14.01,2013-03-09 20:13:00,
2013-03-09 15:18:00,73.9,46.0,30.04,SSE,165,0.0,0.0,37,0.00,,---,0.00,VWS V14.01,2013-03-09 20:18:00,
2013-03-09 15:23:00,73.9,46.7,30.04,SSE,165,0.0,0.0,38,0.00,,---,0.00,VWS V14.01,2013-03-09 20:23:00,
2013-03-09 15:28:00,74.4,47.2,30.04,SSE,165,0.0,0.0,38,0.00,,---,0.00,VWS V14.01,2013-03-09 20:28:00,
2013-03-09 15:30:00,74.2,47.7,30.04,NW,319,0.0,4.0,39,0.00,,---,0.00,VWS V14.01,2013-03-09 20:30:00,
2013-03-09 15:33:00,74.2,46.3,30.04,SSE,165,0.0,1.0,37,0.00,,---,0.00,VWS V14.01,2013-03-09 20:33:00,
2013-03-09 15:38:00,74.4,47.9,30.04,South,169,0.0,0.0,39,0.00,,---,0.00,VWS V14.01,2013-03-09 20:38:00,
2013-03-09 15:44:00,74.7,47.4,30.04,South,169,0.0,0.0,38,0.00,,---,0.00,VWS V14.01,2013-03-09 20:44:00,
2013-03-09 15:49:00,74.9,47.6,30.03,North,0,5.0,5.0,38,0.00,,---,0.00,VWS V14.01,2013-03-09 20:49:00,
2013-03-09 15:54:00,74.7,48.1,30.03,North,359,0.0,5.0,39,0.00,,---,0.00,VWS V14.01,2013-03-09 20:54:00,
2013-03-09 15:59:00,74.6,46.6,30.03,North,359,0.0,5.0,37,0.00,,---,0.00,VWS V14.01,2013-03-09 20:59:00,
2013-03-09 16:00:00,71.5,50.2,30.04,North,7,0.0,5.0,47,0.00,,---,0.00,VWS V14.01,2013-03-09 21:00:00,
2013-03-09 16:04:00,74.7,46.7,30.03,NW,325,0.0,0.0,37,0.00,,---,0.00,VWS V14.01,2013-03-09 21:04:00,
2013-03-09 16:09:00,74.9,47.6,30.03,ESE,119,0.0,0.0,38,0.00,,---,0.00,VWS V14.01,2013-03-09 21:09:00,
2013-03-09 16:14:00,74.9,48.3,30.03,East,92,4.0,4.0,39,0.00,,---,0.00,VWS V14.01,2013-03-09 21:14:00,
2013-03-09 16:19:00,75.1,48.5,30.03,ENE,76,0.0,4.0,39,0.00,,---,0.00,VWS V14.01,2013-03-09 21:19:00,
2013-03-09 16:24:00,74.9,48.3,30.03,North,359,0.0,4.0,39,0.00,,---,0.00,VWS V14.01,2013-03-09 21:24:00,
2013-03-09 16:29:00,74.7,47.4,30.03,NNE,21,0.0,4.0,38,0.00,,---,0.00,VWS V14.01,2013-03-09 21:29:00,
2013-03-09 16:30:00,69.9,50.4,30.05,WSW,250,0.0,3.0,50,0.00,,---,0.00,VWS V14.01,2013-03-09 21:30:00,
2013-03-09 16:34:00,74.2,47.7,30.04,NW,319,0.0,0.0,39,0.00,,---,0.00,VWS V14.01,2013-03-09 21:34:00,
2013-03-09 16:39:00,73.9,49.4,30.04,NW,315,0.0,1.0,42,0.00,,---,0.00,VWS V14.01,2013-03-09 21:39:00,
2013-03-09 16:45:00,73.3,50.1,30.04,WSW,243,1.0,1.0,44,0.00,,---,0.00,VWS V14.01,2013-03-09 21:45:00,
2013-03-09 16:50:00,72.8,50.2,30.04,SW,230,0.0,1.0,45,0.00,,---,0.00,VWS V14.01,2013-03-09 21:50:00,
2013-03-09 16:55:00,72.1,49.6,30.04,East,95,0.0,5.0,45,0.00,,---,0.00,VWS V14.01,2013-03-09 21:55:00,
2013-03-09 17:00:00,71.6,49.8,30.04,NNE,16,2.0,5.0,46,0.00,,---,0.00,VWS V14.01,2013-03-09 22:00:00,
2013-03-09 17:05:00,71.3,50.0,30.04,North,6,0.0,0.0,47,0.00,,---,0.00,VWS V14.01,2013-03-09 22:05:00,
2013-03-09 17:10:00,71.1,50.4,30.04,NNW,329,0.0,3.0,48,0.00,,---,0.00,VWS V14.01,2013-03-09 22:10:00,
2013-03-09 17:15:00,70.9,50.2,30.04,NW,326,0.0,3.0,48,0.00,,---,0.00,VWS V14.01,2013-03-09 22:15:00,
2013-03-09 17:20:00,70.9,51.3,30.04,NNW,328,0.0,3.0,50,0.00,,---,0.00,VWS V14.01,2013-03-09 22:20:00,
2013-03-09 17:25:00,70.4,50.3,30.04,North,359,0.0,3.0,49,0.00,,---,0.00,VWS V14.01,2013-03-09 22:25:00,
2013-03-09 17:30:00,70.1,50.6,30.04,ESE,103,0.0,3.0,50,0.00,,---,0.00,VWS V14.01,2013-03-09 22:30:00,
2013-03-09 17:35:00,69.9,50.4,30.05,East,79,0.0,2.0,50,0.00,,---,0.00,VWS V14.01,2013-03-09 22:35:00,
2013-03-09 17:40:00,69.8,50.9,30.05,SE,126,0.0,2.0,51,0.00,,---,0.00,VWS V14.01,2013-03-09 22:40:00,
2013-03-09 17:45:00,69.6,50.7,30.05,North,0,0.0,2.0,51,0.00,,---,0.00,VWS V14.01,2013-03-09 22:45:00,
2013-03-09 17:50:00,69.3,50.4,30.06,NW,308,0.0,5.0,51,0.00,,---,0.00,VWS V14.01,2013-03-09 22:50:00,
2013-03-09 17:55:00,68.9,50.6,30.06,NW,308,0.0,5.0,52,0.00,,---,0.00,VWS V14.01,2013-03-09 22:55:00,
2013-03-09 18:00:00,68.4,50.1,30.06,WSW,237,0.0,5.0,52,0.00,,---,0.00,VWS V14.01,2013-03-09 23:00:00,
2013-03-09 18:05:00,67.9,49.7,30.06,ESE,114,0.0,1.0,52,0.00,,---,0.00,VWS V14.01,2013-03-09 23:05:00,
2013-03-09 18:11:00,67.4,49.2,30.06,West,265,0.0,4.0,52,0.00,,---,0.00,VWS V14.01,2013-03-09 23:11:00,
2013-03-09 18:16:00,67.1,48.9,30.06,North,359,0.0,5.0,52,0.00,,---,0.00,VWS V14.01,2013-03-09 23:16:00,
2013-03-09 18:21:00,66.6,49.0,30.07,East,85,0.0,5.0,53,0.00,,---,0.00,VWS V14.01,2013-03-09 23:21:00,
2013-03-09 18:26:00,66.3,49.2,30.07,ESE,104,0.0,5.0,54,0.00,,---,0.00,VWS V14.01,2013-03-09 23:26:00,
2013-03-09 18:30:00,61.8,49.1,30.08,North,11,0.0,2.0,63,0.00,,---,0.00,VWS V14.01,2013-03-09 23:30:00,
2013-03-09 18:31:00,65.6,48.5,30.07,NNE,13,0.0,5.0,54,0.00,,---,0.00,VWS V14.01,2013-03-09 23:31:00,
2013-03-09 18:36:00,65.3,48.7,30.07,NNE,13,0.0,0.0,55,0.00,,---,0.00,VWS V14.01,2013-03-09 23:36:00,
2013-03-09 18:41:00,65.0,48.9,30.07,NNE,13,0.0,0.0,56,0.00,,---,0.00,VWS V14.01,2013-03-09 23:41:00,
2013-03-09 18:46:00,64.5,49.0,30.07,NNE,13,0.0,0.0,57,0.00,,---,0.00,VWS V14.01,2013-03-09 23:46:00,
2013-03-09 18:51:00,64.2,49.1,30.07,NNW,344,0.0,0.0,58,0.00,,---,0.00,VWS V14.01,2013-03-09 23:51:00,
2013-03-09 18:56:00,63.9,49.3,30.07,North,7,0.0,2.0,59,0.00,,---,0.00,VWS V14.01,2013-03-09 23:56:00,
2013-03-09 19:00:00,60.9,49.1,30.09,NNE,27,0.0,1.0,65,0.00,,---,0.00,VWS V14.01,2013-03-10 00:00:00,
2013-03-09 19:01:00,63.5,48.9,30.07,ENE,73,0.0,2.0,59,0.00,,---,0.00,VWS V14.01,2013-03-10 00:01:00,
2013-03-09 19:06:00,63.2,48.7,30.08,NNE,17,0.0,1.0,59,0.00,,---,0.00,VWS V14.01,2013-03-10 00:06:00,
2013-03-09 19:11:00,63.1,49.0,30.08,NNE,17,0.0,1.0,60,0.00,,---,0.00,VWS V14.01,2013-03-10 00:11:00,
2013-03-09 19:16:00,62.6,49.0,30.08,North,357,0.0,2.0,61,0.00,,---,0.00,VWS V14.01,2013-03-10 00:16:00,
2013-03-09 19:21:00,62.3,49.1,30.08,East,96,0.0,2.0,62,0.00,,---,0.00,VWS V14.01,2013-03-10 00:21:00,
2013-03-09 19:27:00,62.0,48.8,30.08,East,95,0.0,2.0,62,0.00,,---,0.00,VWS V14.01,2013-03-10 00:27:00,
2013-03-09 19:30:00,59.3,48.8,30.09,NNE,27,0.0,0.0,68,0.00,,---,0.00,VWS V14.01,2013-03-10 00:30:00,
2013-03-09 19:32:00,61.8,48.7,30.08,North,11,0.0,2.0,62,0.00,,---,0.00,VWS V14.01,2013-03-10 00:32:00,
2013-03-09 19:37:00,61.6,48.9,30.08,North,11,0.0,0.0,63,0.00,,---,0.00,VWS V14.01,2013-03-10 00:37:00,
2013-03-09 19:42:00,61.6,48.9,30.08,NNE,27,0.0,1.0,63,0.00,,---,0.00,VWS V14.01,2013-03-10 00:42:00,
2013-03-09 19:47:00,61.5,49.2,30.08,NNE,27,0.0,1.0,64,0.00,,---,0.00,VWS V14.01,2013-03-10 00:47:00,
2013-03-09 19:52:00,61.3,49.0,30.09,NNE,27,0.0,1.0,64,0.00,,---,0.00,VWS V14.01,2013-03-10 00:52:00,
2013-03-09 19:57:00,61.2,48.9,30.09,NNE,27,0.0,1.0,64,0.00,,---,0.00,VWS V14.01,2013-03-10 00:57:00,
2013-03-09 20:00:00,58.4,49.0,30.10,NNE,27,0.0,0.0,71,0.00,,---,0.00,VWS V14.01,2013-03-10 01:00:00,
2013-03-09 20:02:00,60.9,49.1,30.09,NNE,27,0.0,1.0,65,0.00,,---,0.00,VWS V14.01,2013-03-10 01:02:00,
2013-03-09 20:07:00,60.7,49.3,30.09,NNE,27,0.0,0.0,66,0.00,,---,0.00,VWS V14.01,2013-03-10 01:07:00,
2013-03-09 20:12:00,60.4,49.0,30.09,NNE,27,0.0,0.0,66,0.00,,---,0.00,VWS V14.01,2013-03-10 01:12:00,
2013-03-09 20:17:00,60.1,48.7,30.09,NNE,27,0.0,0.0,66,0.00,,---,0.00,VWS V14.01,2013-03-10 01:17:00,
2013-03-09 20:22:00,59.9,48.9,30.09,NNE,27,0.0,0.0,67,0.00,,---,0.00,VWS V14.01,2013-03-10 01:22:00,
2013-03-09 20:27:00,59.6,49.0,30.09,NNE,27,0.0,0.0,68,0.00,,---,0.00,VWS V14.01,2013-03-10 01:27:00,
2013-03-09 20:30:00,57.2,49.4,30.10,NNE,27,0.0,0.0,75,0.00,,---,0.00,VWS V14.01,2013-03-10 01:30:00,
2013-03-09 20:33:00,59.3,48.8,30.09,NNE,27,0.0,0.0,68,0.00,,---,0.00,VWS V14.01,2013-03-10 01:33:00,
2013-03-09 20:38:00,59.2,48.7,30.09,NNE,27,0.0,0.0,68,0.00,,---,0.00,VWS V14.01,2013-03-10 01:38:00,
2013-03-09 20:43:00,58.9,48.8,30.09,NNE,27,0.0,0.0,69,0.00,,---,0.00,VWS V14.01,2013-03-10 01:43:00,
2013-03-09 20:48:00,58.7,49.3,30.09,NNE,27,0.0,0.0,71,0.00,,---,0.00,VWS V14.01,2013-03-10 01:48:00,
2013-03-09 20:53:00,58.6,48.9,30.09,NNE,27,0.0,0.0,70,0.00,,---,0.00,VWS V14.01,2013-03-10 01:53:00,
2013-03-09 20:58:00,58.6,49.2,30.09,NNE,27,0.0,0.0,71,0.00,,---,0.00,VWS V14.01,2013-03-10 01:58:00,
2013-03-09 21:00:00,56.3,49.5,30.10,NNE,27,0.0,0.0,78,0.00,,---,0.00,VWS V14.01,2013-03-10 02:00:00,
2013-03-09 21:03:00,58.4,49.0,30.10,NNE,27,0.0,0.0,71,0.00,,---,0.00,VWS V14.01,2013-03-10 02:03:00,
2013-03-09 21:08:00,58.3,49.0,30.10,NNE,27,0.0,0.0,71,0.00,,---,0.00,VWS V14.01,2013-03-10 02:08:00,
2013-03-09 21:13:00,58.1,49.5,30.10,NNE,27,0.0,0.0,73,0.00,,---,0.00,VWS V14.01,2013-03-10 02:13:00,
2013-03-09 21:18:00,58.0,49.4,30.09,NNE,27,0.0,0.0,73,0.00,,---,0.00,VWS V14.01,2013-03-10 02:18:00,
2013-03-09 21:23:00,57.6,49.4,30.09,NNE,27,0.0,0.0,74,0.00,,---,0.00,VWS V14.01,2013-03-10 02:23:00,
2013-03-09 21:28:00,57.5,49.3,30.09,NNE,27,0.0,0.0,74,0.00,,---,0.00,VWS V14.01,2013-03-10 02:28:00,
2013-03-09 21:30:00,54.8,49.4,30.09,NNE,27,0.0,0.0,82,0.00,,---,0.00,VWS V14.01,2013-03-10 02:30:00,
2013-03-09 21:33:00,57.2,49.4,30.10,NNE,27,0.0,0.0,75,0.00,,---,0.00,VWS V14.01,2013-03-10 02:33:00,
2013-03-09 21:38:00,57.0,49.5,30.10,NNE,27,0.0,0.0,76,0.00,,---,0.00,VWS V14.01,2013-03-10 02:38:00,
2013-03-09 21:43:00,56.9,49.8,30.10,NNE,27,0.0,0.0,77,0.00,,---,0.00,VWS V14.01,2013-03-10 02:43:00,
2013-03-09 21:48:00,56.7,49.6,30.09,NNE,27,0.0,0.0,77,0.00,,---,0.00,VWS V14.01,2013-03-10 02:48:00,
2013-03-09 21:53:00,56.5,49.4,30.09,NNE,27,0.0,0.0,77,0.00,,---,0.00,VWS V14.01,2013-03-10 02:53:00,
2013-03-09 21:59:00,56.3,49.5,30.09,NNE,27,0.0,0.0,78,0.00,,---,0.00,VWS V14.01,2013-03-10 02:59:00,
2013-03-09 22:00:00,54.2,49.8,30.10,NNE,27,0.0,0.0,85,0.00,,---,0.00,VWS V14.01,2013-03-10 03:00:00,
2013-03-09 22:04:00,56.3,49.5,30.10,NNE,27,0.0,0.0,78,0.00,,---,0.00,VWS V14.01,2013-03-10 03:04:00,
2013-03-09 22:09:00,55.9,49.2,30.10,NNE,27,0.0,0.0,78,0.00,,---,0.00,VWS V14.01,2013-03-10 03:09:00,
2013-03-09 22:14:00,55.6,48.9,30.10,NNE,27,0.0,0.0,78,0.00,,---,0.00,VWS V14.01,2013-03-10 03:14:00,
2013-03-09 22:19:00,55.4,49.3,30.10,NNE,27,0.0,0.0,80,0.00,,---,0.00,VWS V14.01,2013-03-10 03:19:00,
2013-03-09 22:24:00,55.3,49.2,30.10,NNE,27,0.0,0.0,80,0.00,,---,0.00,VWS V14.01,2013-03-10 03:24:00,
2013-03-09 22:29:00,55.0,49.6,30.10,NNE,27,0.0,0.0,82,0.00,,---,0.00,VWS V14.01,2013-03-10 03:29:00,
2013-03-09 22:30:00,54.1,50.3,30.09,NNE,27,0.0,0.0,87,0.00,,---,0.00,VWS V14.01,2013-03-10 03:30:00,
2013-03-09 22:34:00,54.8,49.4,30.09,NNE,27,0.0,0.0,82,0.00,,---,0.00,VWS V14.01,2013-03-10 03:34:00,
2013-03-09 22:39:00,54.7,49.7,30.09,NNE,27,0.0,0.0,83,0.00,,---,0.00,VWS V14.01,2013-03-10 03:39:00,
2013-03-09 22:44:00,54.5,49.5,30.09,NNE,27,0.0,0.0,83,0.00,,---,0.00,VWS V14.01,2013-03-10 03:44:00,
2013-03-09 22:49:00,54.5,49.8,30.09,NNE,27,0.0,0.0,84,0.00,,---,0.00,VWS V14.01,2013-03-10 03:49:00,
2013-03-09 22:54:00,54.4,49.7,30.09,NNE,27,0.0,0.0,84,0.00,,---,0.00,VWS V14.01,2013-03-10 03:54:00,
2013-03-09 22:59:00,54.4,50.0,30.09,NNE,27,0.0,0.0,85,0.00,,---,0.00,VWS V14.01,2013-03-10 03:59:00,
2013-03-09 23:00:00,54.1,50.3,30.07,NNE,27,0.0,0.0,87,0.00,,---,0.00,VWS V14.01,2013-03-10 04:00:00,
2013-03-09 23:05:00,54.2,49.5,30.10,NNE,27,0.0,0.0,84,0.00,,---,0.00,VWS V14.01,2013-03-10 04:05:00,
2013-03-09 23:10:00,54.1,49.7,30.10,NNE,27,0.0,0.0,85,0.00,,---,0.00,VWS V14.01,2013-03-10 04:10:00,
2013-03-09 23:15:00,53.9,49.5,30.10,NNE,27,0.0,0.0,85,0.00,,---,0.00,VWS V14.01,2013-03-10 04:15:00,
2013-03-09 23:20:00,54.1,50.0,30.09,NNE,27,0.0,0.0,86,0.00,,---,0.00,VWS V14.01,2013-03-10 04:20:00,
2013-03-09 23:25:00,54.1,50.0,30.09,NNE,27,0.0,0.0,86,0.00,,---,0.00,VWS V14.01,2013-03-10 04:25:00,
2013-03-09 23:30:00,54.1,50.0,30.09,NNE,27,0.0,0.0,86,0.00,,---,0.00,VWS V14.01,2013-03-10 04:30:00,
2013-03-09 23:35:00,54.1,50.3,30.09,NNE,27,0.0,0.0,87,0.00,,---,0.00,VWS V14.01,2013-03-10 04:35:00,
2013-03-09 23:40:00,54.2,50.4,30.09,NNE,27,0.0,0.0,87,0.00,,---,0.00,VWS V14.01,2013-03-10 04:40:00,
2013-03-09 23:45:00,54.2,50.4,30.09,NNE,27,0.0,0.0,87,0.00,,---,0.00,VWS V14.01,2013-03-10 04:45:00,
2013-03-09 23:50:00,54.2,50.4,30.08,NNE,27,0.0,0.0,87,0.00,,---,0.00,VWS V14.01,2013-03-10 04:50:00,
2013-03-09 23:56:00,54.1,50.3,30.08,NNE,27,0.0,0.0,87,0.00,,---,0.00,VWS V14.01,2013-03-10 04:56:00,